Terminal Aerodrome Forecast
Issued by NWS Sterling, VA

Current Version | Previous Version | Text Only | Print | Product List | Glossary Off
Versions: 1 2 3 4 5 6 7 8 9 10 11 12 13 14 15 16 17 18 19 20 21 22 23

000
FTUS41 KLWX 271729
TAFDCA
TAF
KDCA 271729Z 2718/2818 18014KT P6SM OVC250
     FM272100 18014KT P6SM SCT050
     FM280000 18012KT P6SM BKN050
     FM280300 19008KT P6SM OVC050
     FM280900 25006KT 5SM BR BKN050
     FM281200 32007KT P6SM SCT250=

USA.gov is the U.S. government's official web portal to all federal, state and local government web resources and services.